Depesza METAR lotniska Warszawa-Okęcie

METAR = EPWA 311100Z 19019G29KT 9999 BKN035 06/M02 Q0993 BECMG 5000 RASN BKN010

STACJA......... EPWA - Warszawa-Okęcie (WAW)
POMIAR......... Tue Mar 31, 13:00 CEST
TERAZ.......... Tue Mar 31, 13:16 CEST
CZAS........... 16 min temu
WIATR.......... południowy (S) z prędkością 35 km/h, w porywach do 54 km/h
WIDZIALNOŚĆ.. powyżej 10 kilometrów
CHMURY......... zachmurzenie średnie (5/8-7/8)
TEMPERATURA.... 6°C
T.PUNKTU ROSY.. -2°C
WILGOTNOŚĆ... 57%
T.ODCZUWALNA... 1°C
CIŚNIENIE..... 993 hPa
PROGNOZA....... nastąpi zmiana widzialności do 5000 metrów

Depesza METAR lotniska Kraków-Balice

METAR = EPKK 311100Z 14004KT 100V180 6000 -RASN FEW012 BKN023 02/01 Q0994

STACJA......... EPKK - Kraków-Balice (KRK)
POMIAR......... Tue Mar 31, 13:00 CEST
TERAZ.......... Tue Mar 31, 13:16 CEST
CZAS........... 16 min temu
WIATR.......... południowo wschodni (SE) z prędkością 7 km/h
WIDZIALNOŚĆ.. 6000 metrów
WARUNKI........ słaby: deszcz śnieg 
CHMURY......... zachmurzenie średnie (5/8-7/8)
TEMPERATURA.... 2°C
T.PUNKTU ROSY.. 1°C
WILGOTNOŚĆ... 93%
T.ODCZUWALNA... 0°C
CIŚNIENIE..... 994 hPa

Depesza METAR lotniska Łódź-Lublinek

METAR = EPLL 311100Z 15011KT 3500 SNRA BR BKN008 01/00 Q0990

STACJA......... EPLL - Łódź-Lublinek (LCJ)
POMIAR......... Tue Mar 31, 13:00 CEST
TERAZ.......... Tue Mar 31, 13:16 CEST
CZAS........... 16 min temu
WIATR.......... południowo południowo-wschodni (SSE) z prędkością 20 km/h
WIDZIALNOŚĆ.. 3500 metrów
WARUNKI........ śnieg deszcz  & zamglenie 
CHMURY......... zachmurzenie średnie (5/8-7/8)
TEMPERATURA.... 1°C
T.PUNKTU ROSY.. 0°C
WILGOTNOŚĆ... 93%
T.ODCZUWALNA... -4°C
CIŚNIENIE..... 990 hPa

Depesza METAR lotniska Wrocław-Strachowice

METAR = EPWR 311100Z 26008KT 220V290 9999 -SHRA SCT015CB BKN030 08/05 Q0988

STACJA......... EPWR - Wrocław-Strachowice (WRO)
POMIAR......... Tue Mar 31, 13:00 CEST
TERAZ.......... Tue Mar 31, 13:16 CEST
CZAS........... 16 min temu
WIATR.......... zachodni (W) z prędkością 15 km/h
WIDZIALNOŚĆ.. powyżej 10 kilometrów
WARUNKI........ słaby: deszcz opad przelotny 
CHMURY......... zachmurzenie średnie (5/8-7/8)
TEMPERATURA.... 8°C
T.PUNKTU ROSY.. 5°C
WILGOTNOŚĆ... 82%
T.ODCZUWALNA... 5°C
CIŚNIENIE..... 988 hPa

Depesza METAR lotniska Katowice-Pyrzowice

METAR = EPKT 311100Z 17009KT 130V210 8000 -SN SCT003 BKN006 01/01 Q0992 RESHSN

STACJA......... EPKT - Katowice-Pyrzowice (KTW)
POMIAR......... Tue Mar 31, 13:00 CEST
TERAZ.......... Tue Mar 31, 13:16 CEST
CZAS........... 16 min temu
WIATR.......... południowy (S) z prędkością 17 km/h
WIDZIALNOŚĆ.. 8000 metrów
WARUNKI........ słaby: śnieg 
CHMURY......... zachmurzenie średnie (5/8-7/8)
TEMPERATURA.... 1°C
T.PUNKTU ROSY.. 1°C
WILGOTNOŚĆ... 100%
T.ODCZUWALNA... -3°C
CIŚNIENIE..... 992 hPa
WCZEŚNIEJ..... obserwowane były zjawiska: opad przelotny, śnieg

Depesza METAR lotniska Gdańsk

METAR = EPGD 311100Z 18007KT 130V230 8000 -RASN FEW005 BKN021 03/M00 Q0986

STACJA......... EPGD - Gdańsk im. Lecha Wałęsy (GDN)
POMIAR......... Tue Mar 31, 13:00 CEST
TERAZ.......... Tue Mar 31, 13:16 CEST
CZAS........... 16 min temu
WIATR.......... południowy (S) z prędkością 13 km/h
WIDZIALNOŚĆ.. 8000 metrów
WARUNKI........ słaby: deszcz śnieg 
CHMURY......... zachmurzenie średnie (5/8-7/8)
TEMPERATURA.... 3°C
T.PUNKTU ROSY.. 0°C
WILGOTNOŚĆ... 81%
T.ODCZUWALNA... -1°C
CIŚNIENIE..... 986 hPa

Depesza METAR lotniska Poznań-Ławica

METAR = EPPO 311100Z 16014KT 8000 BKN005 02/M00 Q0985 RESN

STACJA......... EPPO - Poznań-Ławica (POZ)
POMIAR......... Tue Mar 31, 13:00 CEST
TERAZ.......... Tue Mar 31, 13:16 CEST
CZAS........... 16 min temu
WIATR.......... południowo południowo-wschodni (SSE) z prędkością 26 km/h
WIDZIALNOŚĆ.. 8000 metrów
CHMURY......... zachmurzenie średnie (5/8-7/8)
TEMPERATURA.... 2°C
T.PUNKTU ROSY.. 0°C
WILGOTNOŚĆ... 87%
T.ODCZUWALNA... -3°C
CIŚNIENIE..... 985 hPa
WCZEŚNIEJ..... obserwowane były zjawiska: śnieg

Depesza METAR lotniska Rzeszów-Jasionka

METAR = EPRZ 311100Z 21020G30KT 9999 SCT040 06/M01 Q0997

STACJA......... EPRZ - Rzeszów-Jasionka (RZE)
POMIAR......... Tue Mar 31, 13:00 CEST
TERAZ.......... Tue Mar 31, 13:16 CEST
CZAS........... 16 min temu
WIATR.......... południowo południowo-zachodni  (SSW) z prędkością 37 km/h, w porywach do 56 km/h
WIDZIALNOŚĆ.. powyżej 10 kilometrów
CHMURY......... zachmurzenie małe (3/8-4/8)
TEMPERATURA.... 6°C
T.PUNKTU ROSY.. -1°C
WILGOTNOŚĆ... 61%
T.ODCZUWALNA... 1°C
CIŚNIENIE..... 997 hPa

Depesza METAR lotniska Szczecin-Goleniów

METAR = EPSC 311100Z 19010KT 150V240 9999 -RA FEW002 BKN003 BKN007 01/01 Q0982

STACJA......... EPSC - Szczecin-Goleniów (SZZ)
POMIAR......... Tue Mar 31, 13:00 CEST
TERAZ.......... Tue Mar 31, 13:16 CEST
CZAS........... 16 min temu
WIATR.......... południowy (S) z prędkością 19 km/h
WIDZIALNOŚĆ.. powyżej 10 kilometrów
WARUNKI........ słaby: deszcz 
CHMURY......... zachmurzenie średnie (5/8-7/8)
TEMPERATURA.... 1°C
T.PUNKTU ROSY.. 1°C
WILGOTNOŚĆ... 100%
T.ODCZUWALNA... -3°C
CIŚNIENIE..... 982 hPa

Depesza METAR lotniska Lublin-Świdnik

METAR = EPLB 170930Z 08006KT 2000 -RA BR FEW006 OVC011 12/11 Q1009

STACJA......... EPLB - Lublin-Świdnik (LUZ)
POMIAR......... Fri Oct 17, 11:30 CEST
TERAZ.......... Tue Mar 31, 13:16 CEST
CZAS........... 3961:46 godz temu
WIATR.......... wschodni (E) z prędkością 11 km/h
WIDZIALNOŚĆ.. 2000 metrów
WARUNKI........ słaby: deszcz  & zamglenie 
CHMURY......... zachmurzenie całkowite (8/8)
TEMPERATURA.... 12°C
T.PUNKTU ROSY.. 11°C
WILGOTNOŚĆ... 94%
CIŚNIENIE..... 1009 hPa

Sprawdź też: prognoza pogody dla miast w Polsce!